Time;durP1;ratioP1;P1;durP2;ratioP2;P2;SDS_P1;SDS_P2;PMS_P1;PMS_P2;Temp;Humidity;BMP_temperature;BMP_pressure;BME280_temperature;BME280_humidity;BME280_pressure;Samples;Min_cycle;Max_cycle;Signal;HPM_P1;HPM_P2
2023/06/30 00:00:12;;;;;;;6.85;3.90;;;16.20;92.20;;;;;;5026725;28;20030;-43
2023/06/30 00:02:40;;;;;;;8.88;4.80;;;16.20;92.20;;;;;;5051844;28;20013;-44
2023/06/30 00:05:08;;;;;;;17.13;4.60;;;16.20;92.20;;;;;;5034929;28;20047;-44
2023/06/30 00:07:36;;;;;;;20.05;5.45;;;16.20;92.10;;;;;;5052110;28;20383;-44
2023/06/30 00:10:03;;;;;;;10.88;4.18;;;16.20;92.00;;;;;;5035782;28;20362;-44
2023/06/30 00:12:32;;;;;;;9.13;4.35;;;16.10;91.90;;;;;;5034995;28;20131;-43
2023/06/30 00:14:59;;;;;;;11.68;5.00;;;16.10;91.80;;;;;;5021493;28;20057;-44
2023/06/30 00:17:26;;;;;;;9.70;3.70;;;16.00;91.70;;;;;;5039321;28;20036;-42
2023/06/30 00:19:57;;;;;;;10.20;3.70;;;16.00;91.70;;;;;;5050239;28;20450;-43
2023/06/30 00:22:25;;;;;;;13.07;4.32;;;16.00;91.80;;;;;;5033481;28;20458;-42
2023/06/30 00:24:58;;;;;;;8.30;3.50;;;16.00;91.70;;;;;;5049157;28;20082;-43
2023/06/30 00:27:24;;;;;;;12.82;4.40;;;15.90;91.60;;;;;;5035724;28;20022;-43
2023/06/30 00:29:50;;;;;;;10.02;4.28;;;15.90;91.50;;;;;;5036691;28;20029;-43
2023/06/30 00:32:16;;;;;;;10.90;5.57;;;15.90;91.50;;;;;;5042684;28;20469;-42
2023/06/30 00:34:45;;;;;;;10.68;5.35;;;15.80;91.60;;;;;;5033893;28;20029;-42
2023/06/30 00:37:12;;;;;;;11.23;5.18;;;15.80;91.60;;;;;;5049356;28;20052;-43
2023/06/30 00:39:39;;;;;;;7.45;4.20;;;15.80;91.70;;;;;;5052404;28;20029;-43
2023/06/30 00:42:05;;;;;;;10.90;5.20;;;15.80;91.80;;;;;;5037329;28;20100;-43
2023/06/30 00:44:32;;;;;;;10.38;4.90;;;15.70;91.80;;;;;;5033925;28;20613;-42
2023/06/30 00:47:00;;;;;;;6.78;5.00;;;15.70;91.80;;;;;;5051010;28;20035;-42
2023/06/30 00:49:28;;;;;;;14.15;6.68;;;15.70;91.90;;;;;;5052254;28;20032;-43
2023/06/30 00:51:58;;;;;;;11.68;6.05;;;15.70;92.00;;;;;;5042952;28;20032;-43
2023/06/30 00:54:26;;;;;;;12.75;6.05;;;15.70;92.10;;;;;;5057149;28;20091;-43
2023/06/30 00:56:52;;;;;;;12.02;6.00;;;15.80;92.30;;;;;;5046050;28;20113;-43
2023/06/30 00:59:19;;;;;;;12.45;6.25;;;15.80;92.30;;;;;;5034264;28;20044;-43
2023/06/30 01:02:12;;;;;;;9.20;6.80;;;15.80;92.30;;;;;;5048925;28;20025;-43
2023/06/30 01:04:59;;;;;;;7.78;4.78;;;15.90;92.50;;;;;;5035508;28;20033;-43
2023/06/30 01:07:37;;;;;;;11.35;5.10;;;15.90;92.40;;;;;;5034231;28;20026;-43
2023/06/30 01:10:16;;;;;;;7.55;5.43;;;15.90;92.40;;;;;;5039386;28;20029;-44
2023/06/30 01:12:43;;;;;;;12.45;6.10;;;15.90;92.40;;;;;;5052475;28;20036;-44
2023/06/30 01:15:12;;;;;;;7.38;5.20;;;15.90;92.40;;;;;;5046041;28;20053;-43
2023/06/30 01:17:44;;;;;;;9.32;5.72;;;15.90;92.40;;;;;;5042426;28;20021;-44
2023/06/30 01:20:13;;;;;;;7.05;5.18;;;15.90;92.40;;;;;;5013372;28;20384;-44
2023/06/30 01:23:13;;;;;;;11.00;5.40;;;15.80;92.30;;;;;;5014000;28;20060;-43
2023/06/30 01:25:41;;;;;;;8.38;6.03;;;15.80;92.30;;;;;;5028594;28;20033;-44
2023/06/30 01:28:09;;;;;;;14.57;5.93;;;15.70;92.10;;;;;;5033845;28;20021;-42
2023/06/30 01:30:36;;;;;;;7.95;4.85;;;15.60;92.00;;;;;;5031862;28;20444;-44
2023/06/30 01:33:02;;;;;;;9.82;5.53;;;15.60;92.00;;;;;;5046683;28;20132;-44
2023/06/30 01:35:29;;;;;;;15.18;6.65;;;15.50;92.00;;;;;;5048695;28;20180;-43
2023/06/30 01:37:56;;;;;;;15.32;5.90;;;15.40;92.00;;;;;;5033924;28;20053;-44
2023/06/30 01:40:23;;;;;;;13.93;6.22;;;15.40;92.00;;;;;;5013476;28;20026;-44
2023/06/30 01:42:53;;;;;;;11.73;5.50;;;15.40;92.00;;;;;;5015966;28;20179;-44
2023/06/30 01:45:26;;;;;;;14.15;6.60;;;15.30;92.10;;;;;;5027174;28;20112;-44
2023/06/30 01:47:54;;;;;;;13.38;7.35;;;15.30;92.10;;;;;;5032285;28;20136;-43
2023/06/30 01:50:22;;;;;;;10.75;6.35;;;15.30;92.20;;;;;;5032404;28;20033;-46
2023/06/30 01:52:50;;;;;;;9.18;5.93;;;15.20;92.10;;;;;;5031918;28;20032;-43
2023/06/30 01:55:17;;;;;;;7.50;6.03;;;15.20;92.20;;;;;;5031796;28;20034;-43
2023/06/30 01:57:45;;;;;;;8.77;5.40;;;15.20;92.30;;;;;;5032804;28;20368;-43
2023/06/30 02:00:14;;;;;;;12.95;6.25;;;15.20;92.20;;;;;;5032362;28;20037;-44
2023/06/30 02:02:41;;;;;;;10.50;5.78;;;15.10;92.20;;;;;;5012133;28;20463;-43
2023/06/30 02:05:08;;;;;;;15.70;6.35;;;15.10;92.20;;;;;;5040955;28;20041;-43
2023/06/30 02:07:35;;;;;;;8.75;5.68;;;15.00;92.10;;;;;;5035394;28;20497;-45
2023/06/30 02:10:02;;;;;;;8.90;6.18;;;15.00;92.30;;;;;;5043352;28;20036;-42
2023/06/30 02:12:29;;;;;;;10.50;5.18;;;15.10;92.40;;;;;;5019471;28;20395;-43
2023/06/30 02:14:57;;;;;;;11.80;6.05;;;15.00;92.30;;;;;;5014023;28;20048;-44
2023/06/30 02:17:32;;;;;;;11.05;6.15;;;15.10;92.50;;;;;;5031234;28;20029;-46
2023/06/30 02:20:00;;;;;;;8.95;5.57;;;15.10;92.60;;;;;;5021872;28;20040;-43
2023/06/30 02:22:29;;;;;;;11.25;5.35;;;15.10;92.60;;;;;;5031197;28;20018;-46
2023/06/30 02:24:56;;;;;;;10.70;6.10;;;15.10;92.60;;;;;;5024565;28;20030;-45
2023/06/30 02:27:22;;;;;;;8.13;4.35;;;15.10;92.50;;;;;;5014723;28;20029;-45
2023/06/30 02:29:50;;;;;;;11.48;4.88;;;15.10;92.60;;;;;;5028921;28;20435;-43
2023/06/30 02:32:17;;;;;;;11.10;5.20;;;15.10;92.70;;;;;;5030851;28;20032;-43
2023/06/30 02:34:46;;;;;;;9.02;5.63;;;15.10;92.80;;;;;;5015298;28;20030;-43
2023/06/30 02:37:13;;;;;;;10.10;5.65;;;15.20;92.80;;;;;;5030923;28;20034;-44
2023/06/30 02:39:42;;;;;;;10.43;5.82;;;15.10;92.80;;;;;;5036114;28;20041;-43
2023/06/30 02:42:09;;;;;;;15.65;5.75;;;15.10;92.80;;;;;;5037921;28;20029;-44
2023/06/30 02:44:35;;;;;;;10.27;5.95;;;15.10;92.90;;;;;;5047268;28;20059;-43
2023/06/30 02:47:02;;;;;;;12.98;5.80;;;15.10;92.70;;;;;;5037977;28;20053;-43
2023/06/30 02:49:29;;;;;;;13.73;5.20;;;15.00;92.60;;;;;;5032102;28;20040;-43
2023/06/30 02:51:56;;;;;;;17.77;5.80;;;15.00;92.60;;;;;;5045183;28;20022;-44
2023/06/30 02:54:23;;;;;;;13.50;5.30;;;15.00;92.60;;;;;;5017148;28;20096;-44
2023/06/30 02:56:49;;;;;;;11.70;5.43;;;15.00;92.50;;;;;;5005692;28;20513;-44
2023/06/30 02:59:16;;;;;;;11.85;5.70;;;14.90;92.50;;;;;;5035529;28;20460;-44
2023/06/30 03:01:44;;;;;;;13.50;5.85;;;14.90;92.40;;;;;;5035023;28;20033;-43
2023/06/30 03:04:13;;;;;;;9.00;5.88;;;14.90;92.40;;;;;;5033324;28;20022;-43
2023/06/30 03:06:39;;;;;;;9.93;5.80;;;14.90;92.30;;;;;;5021551;28;20053;-43
2023/06/30 03:09:08;;;;;;;9.90;4.90;;;14.80;92.20;;;;;;5036401;28;20105;-45
2023/06/30 03:11:34;;;;;;;8.55;5.50;;;14.80;92.20;;;;;;5027689;28;20045;-44
2023/06/30 03:14:02;;;;;;;6.57;4.88;;;14.70;92.20;;;;;;5049372;28;20029;-44
2023/06/30 03:16:27;;;;;;;9.85;5.45;;;14.70;92.30;;;;;;5058033;28;20379;-43
2023/06/30 03:18:55;;;;;;;12.05;6.07;;;14.70;92.10;;;;;;5056567;28;20028;-42
2023/06/30 03:21:22;;;;;;;12.30;6.47;;;14.60;92.20;;;;;;5039633;28;20022;-43
2023/06/30 03:23:51;;;;;;;12.70;6.05;;;14.60;92.30;;;;;;5061365;28;20505;-44
2023/06/30 03:26:17;;;;;;;10.07;5.63;;;14.60;92.30;;;;;;5045418;28;20442;-43
2023/06/30 03:28:43;;;;;;;12.00;5.13;;;14.60;92.20;;;;;;5055912;28;20037;-43
2023/06/30 03:31:10;;;;;;;8.63;5.50;;;14.60;92.30;;;;;;5037721;28;20111;-45
2023/06/30 03:33:36;;;;;;;10.07;5.93;;;14.60;92.30;;;;;;5035632;28;20072;-44
2023/06/30 03:36:03;;;;;;;9.40;5.82;;;14.50;92.20;;;;;;5035653;28;20021;-45
2023/06/30 03:38:30;;;;;;;9.27;6.55;;;14.50;92.30;;;;;;5052521;28;20029;-44
2023/06/30 03:40:59;;;;;;;9.65;5.50;;;14.50;92.30;;;;;;5053241;28;20029;-43
2023/06/30 03:43:26;;;;;;;13.20;6.20;;;14.50;92.30;;;;;;5039048;28;20084;-43
2023/06/30 03:45:54;;;;;;;8.38;5.57;;;14.50;92.40;;;;;;5029619;28;20029;-43
2023/06/30 03:48:23;;;;;;;10.02;5.47;;;14.50;92.30;;;;;;5057008;28;20084;-43
2023/06/30 03:50:52;;;;;;;10.25;5.90;;;14.50;92.30;;;;;;5055513;28;20040;-44
2023/06/30 03:53:20;;;;;;;11.57;6.55;;;14.60;92.30;;;;;;5053889;28;20341;-43
2023/06/30 03:55:47;;;;;;;7.38;5.63;;;14.60;92.20;;;;;;5043522;28;20037;-43
2023/06/30 03:58:13;;;;;;;9.05;5.60;;;14.60;92.30;;;;;;5037925;28;20021;-43
2023/06/30 04:00:40;;;;;;;7.75;5.05;;;14.60;92.20;;;;;;5055812;28;20029;-44
2023/06/30 04:03:07;;;;;;;14.57;5.65;;;14.60;92.20;;;;;;5039628;28;20466;-43
2023/06/30 04:05:32;;;;;;;10.32;6.32;;;14.60;92.20;;;;;;5042893;28;20365;-43
2023/06/30 04:07:59;;;;;;;7.03;5.20;;;14.60;92.10;;;;;;5051405;28;20029;-43
2023/06/30 04:10:26;;;;;;;10.55;5.10;;;14.60;92.00;;;;;;5047636;28;20033;-45
2023/06/30 04:12:52;;;;;;;13.02;6.85;;;14.60;92.10;;;;;;5062355;28;20016;-43
2023/06/30 04:15:17;;;;;;;9.73;5.75;;;14.60;92.00;;;;;;5062629;28;20037;-43
2023/06/30 04:17:45;;;;;;;12.68;5.97;;;14.70;92.00;;;;;;5043637;28;20434;-44
2023/06/30 04:20:15;;;;;;;17.38;6.97;;;14.70;92.00;;;;;;5064332;28;20025;-43
2023/06/30 04:22:44;;;;;;;13.73;6.75;;;14.70;91.80;;;;;;5061716;28;20025;-44
2023/06/30 04:25:13;;;;;;;7.88;5.82;;;14.60;91.80;;;;;;5057860;28;20443;-43
2023/06/30 04:27:41;;;;;;;8.10;5.40;;;14.60;91.80;;;;;;5052057;28;20049;-43
2023/06/30 04:30:08;;;;;;;12.60;6.38;;;14.60;91.70;;;;;;5041246;28;20316;-43
2023/06/30 04:32:35;;;;;;;17.35;6.70;;;14.60;91.80;;;;;;5052037;28;20037;-42
2023/06/30 04:35:02;;;;;;;14.30;6.20;;;14.60;91.70;;;;;;5047138;28;20068;-43
2023/06/30 04:37:29;;;;;;;13.60;6.15;;;14.70;91.80;;;;;;5050117;28;20032;-42
2023/06/30 04:39:59;;;;;;;9.23;6.07;;;14.70;91.70;;;;;;5055713;28;20057;-44
2023/06/30 04:42:29;;;;;;;10.43;5.50;;;14.70;91.60;;;;;;5042401;28;20079;-42
2023/06/30 04:44:56;;;;;;;8.95;5.47;;;14.80;91.70;;;;;;5072827;28;20056;-43
2023/06/30 04:47:22;;;;;;;9.68;5.53;;;14.90;91.70;;;;;;5050069;28;20063;-42
2023/06/30 04:49:51;;;;;;;5.32;4.60;;;14.90;91.70;;;;;;5054516;28;20031;-43
2023/06/30 04:52:18;;;;;;;7.82;5.53;;;15.00;91.70;;;;;;5053044;28;20374;-43
2023/06/30 04:54:45;;;;;;;10.98;5.97;;;15.10;91.60;;;;;;5037328;28;20044;-43
2023/06/30 04:57:14;;;;;;;8.95;5.50;;;15.00;91.00;;;;;;5044614;28;20051;-44
2023/06/30 04:59:41;;;;;;;10.07;5.38;;;15.10;91.20;;;;;;5036626;28;20029;-43
2023/06/30 05:02:08;;;;;;;12.38;6.63;;;15.10;91.30;;;;;;5042742;28;20033;-42
2023/06/30 05:04:35;;;;;;;11.55;6.97;;;15.10;91.10;;;;;;5053205;28;20098;-43
2023/06/30 05:07:02;;;;;;;21.02;6.53;;;15.20;91.00;;;;;;5053034;28;20059;-43
2023/06/30 05:09:29;;;;;;;11.50;5.93;;;15.20;91.10;;;;;;5041208;28;20503;-42
2023/06/30 05:11:55;;;;;;;6.95;4.90;;;15.20;91.00;;;;;;5034136;28;20068;-43
2023/06/30 05:14:22;;;;;;;13.45;5.75;;;15.20;90.90;;;;;;5041868;28;20074;-42
2023/06/30 05:16:49;;;;;;;14.30;6.00;;;15.30;90.80;;;;;;5052848;28;20047;-42
2023/06/30 05:19:16;;;;;;;10.77;6.32;;;15.30;90.90;;;;;;5031776;28;20074;-42
2023/06/30 05:21:43;;;;;;;7.07;5.13;;;15.40;90.90;;;;;;5030378;28;20031;-42
2023/06/30 05:24:09;;;;;;;11.75;5.28;;;15.30;90.90;;;;;;5071117;28;20021;-43
2023/06/30 05:26:36;;;;;;;9.02;5.28;;;15.30;90.90;;;;;;5053625;28;20029;-41
2023/06/30 05:29:02;;;;;;;9.10;5.20;;;15.30;91.00;;;;;;5046358;28;20044;-43
2023/06/30 05:31:29;;;;;;;9.25;4.80;;;15.40;90.90;;;;;;5048648;28;20033;-42
2023/06/30 05:33:55;;;;;;;11.88;5.63;;;15.40;91.10;;;;;;5036330;28;20083;-45
2023/06/30 05:36:23;;;;;;;10.57;4.90;;;15.50;91.10;;;;;;5059070;28;20061;-42
2023/06/30 05:38:49;;;;;;;8.70;5.53;;;15.50;91.20;;;;;;5063247;28;20453;-43
2023/06/30 05:41:16;;;;;;;8.90;5.75;;;15.60;91.20;;;;;;5041204;28;20446;-42
2023/06/30 05:43:43;;;;;;;9.38;4.72;;;15.80;91.40;;;;;;5039677;28;20036;-42
2023/06/30 05:46:12;;;;;;;8.70;4.78;;;15.90;91.30;;;;;;5052051;28;20108;-43
2023/06/30 05:48:39;;;;;;;6.18;4.40;;;15.90;91.20;;;;;;5053993;28;20481;-42
2023/06/30 05:51:06;;;;;;;7.43;4.43;;;16.10;91.30;;;;;;5059737;28;20029;-42
2023/06/30 05:53:33;;;;;;;7.18;5.45;;;16.40;91.40;;;;;;5059215;28;20024;-42
2023/06/30 05:55:59;;;;;;;7.38;4.95;;;16.50;90.90;;;;;;5042019;28;20132;-42
2023/06/30 05:58:26;;;;;;;12.07;4.63;;;16.60;90.40;;;;;;5039128;28;20025;-44
2023/06/30 06:00:53;;;;;;;8.10;4.32;;;16.60;89.90;;;;;;5048370;28;20112;-43
2023/06/30 06:03:20;;;;;;;7.05;3.83;;;16.60;89.80;;;;;;5050083;28;20120;-43
2023/06/30 06:05:47;;;;;;;5.65;3.25;;;16.60;89.70;;;;;;5054657;28;20099;-42
2023/06/30 06:08:15;;;;;;;5.93;3.17;;;16.60;89.70;;;;;;5035998;28;20592;-42
2023/06/30 06:10:43;;;;;;;7.68;3.42;;;16.70;89.80;;;;;;5055541;28;20103;-42
2023/06/30 06:13:10;;;;;;;7.65;4.32;;;17.00;89.80;;;;;;5042660;28;20497;-44
2023/06/30 06:15:36;;;;;;;8.13;3.40;;;17.20;89.10;;;;;;5055930;28;20072;-42
2023/06/30 06:18:03;;;;;;;8.38;2.80;;;17.40;88.80;;;;;;5051910;28;20159;-43
2023/06/30 06:20:30;;;;;;;7.53;2.83;;;17.60;88.00;;;;;;5051268;28;20343;-42
2023/06/30 06:22:57;;;;;;;6.75;2.72;;;17.50;86.20;;;;;;5049967;28;20035;-42
2023/06/30 06:25:24;;;;;;;6.35;2.63;;;17.40;86.90;;;;;;5051802;28;20051;-43
2023/06/30 06:27:50;;;;;;;4.00;2.17;;;17.40;87.10;;;;;;5032455;28;20125;-46
2023/06/30 06:30:17;;;;;;;6.63;2.55;;;17.70;87.40;;;;;;5065816;28;20070;-44
2023/06/30 06:32:44;;;;;;;6.60;2.53;;;17.90;86.80;;;;;;5052211;28;20082;-43
2023/06/30 06:35:12;;;;;;;6.07;2.42;;;17.90;85.20;;;;;;5031132;28;20385;-44
2023/06/30 06:37:39;;;;;;;6.35;2.42;;;17.90;84.20;;;;;;5050081;28;20371;-44
2023/06/30 06:40:09;;;;;;;6.18;2.75;;;17.80;84.20;;;;;;5055361;28;20460;-45
2023/06/30 06:42:35;;;;;;;5.55;1.85;;;17.80;84.40;;;;;;5065068;28;20035;-45
2023/06/30 06:45:03;;;;;;;7.25;3.53;;;17.90;84.30;;;;;;5059793;28;20033;-45
2023/06/30 06:48:07;;;;;;;3.58;1.50;;;18.10;84.00;;;;;;5042837;28;20505;-45
2023/06/30 06:50:34;;;;;;;4.40;1.88;;;18.10;82.90;;;;;;5057419;28;20033;-45
2023/06/30 06:53:00;;;;;;;7.75;2.65;;;18.40;82.10;;;;;;5057477;28;20036;-45
2023/06/30 06:55:29;;;;;;;5.43;2.15;;;18.60;82.60;;;;;;5037996;28;20029;-48
2023/06/30 06:57:56;;;;;;;5.97;2.55;;;18.70;82.00;;;;;;5034245;28;20029;-45
2023/06/30 07:00:23;;;;;;;5.97;1.98;;;18.90;81.80;;;;;;5040411;28;20037;-46
2023/06/30 07:02:51;;;;;;;7.60;1.80;;;18.90;81.80;;;;;;5055061;28;20031;-49
2023/06/30 07:05:19;;;;;;;5.15;1.98;;;19.30;82.10;;;;;;5022515;28;20487;-47
2023/06/30 07:07:46;;;;;;;4.28;2.08;;;19.20;81.10;;;;;;5036359;28;20043;-46
2023/06/30 07:10:16;;;;;;;6.63;2.20;;;19.10;80.70;;;;;;5037529;28;20029;-48
2023/06/30 07:12:42;;;;;;;4.68;1.88;;;19.40;79.80;;;;;;5049850;28;20093;-46
2023/06/30 07:15:09;;;;;;;6.35;2.25;;;19.50;80.00;;;;;;5053215;28;20127;-51
2023/06/30 07:17:36;;;;;;;6.18;1.38;;;19.30;78.70;;;;;;5030010;28;20029;-47
2023/06/30 07:20:02;;;;;;;4.78;1.30;;;19.20;79.60;;;;;;5059942;28;20025;-47
2023/06/30 07:22:29;;;;;;;4.07;1.63;;;19.30;79.40;;;;;;5050690;28;20482;-46
2023/06/30 07:24:56;;;;;;;4.00;1.48;;;19.40;79.50;;;;;;5031475;28;20731;-46
2023/06/30 07:27:24;;;;;;;7.75;1.88;;;19.40;78.90;;;;;;5038823;28;20028;-48
2023/06/30 07:29:53;;;;;;;3.70;1.30;;;19.20;78.70;;;;;;5052856;28;20035;-47
2023/06/30 07:32:20;;;;;;;4.10;1.60;;;18.90;78.90;;;;;;5034188;28;20029;-50
2023/06/30 07:34:47;;;;;;;6.93;2.03;;;18.60;78.10;;;;;;5051783;28;20064;-49
2023/06/30 07:37:13;;;;;;;6.82;1.67;;;18.50;79.20;;;;;;5037698;28;20343;-49
2023/06/30 07:39:43;;;;;;;6.40;1.95;;;18.30;79.80;;;;;;5053810;28;20029;-48
2023/06/30 07:42:10;;;;;;;4.32;1.70;;;18.60;80.50;;;;;;5030874;28;20033;-48
2023/06/30 07:44:39;;;;;;;4.60;1.63;;;18.80;78.50;;;;;;5047395;28;20071;-49
2023/06/30 07:47:05;;;;;;;4.53;1.25;;;19.50;78.70;;;;;;5048566;28;20418;-51
2023/06/30 07:49:34;;;;;;;5.82;1.75;;;20.20;75.50;;;;;;5049359;28;20040;-47
2023/06/30 07:52:01;;;;;;;7.97;1.73;;;20.90;72.40;;;;;;5039518;28;20438;-48
2023/06/30 07:54:29;;;;;;;5.90;1.60;;;21.60;71.80;;;;;;5061190;28;20105;-48
2023/06/30 07:56:55;;;;;;;3.63;1.15;;;22.00;70.80;;;;;;5035582;28;20029;-47
2023/06/30 07:59:21;;;;;;;4.75;1.63;;;21.70;68.60;;;;;;5046995;28;20399;-47
2023/06/30 08:01:48;;;;;;;3.50;1.33;;;21.30;68.30;;;;;;5051561;28;20119;-51
2023/06/30 08:04:16;;;;;;;6.57;1.85;;;20.70;71.30;;;;;;5047619;28;20327;-47
2023/06/30 08:06:43;;;;;;;3.88;1.00;;;20.70;69.70;;;;;;5035264;28;20068;-48
2023/06/30 08:09:10;;;;;;;5.65;1.20;;;20.90;68.10;;;;;;5063903;28;20466;-48
2023/06/30 08:11:40;;;;;;;4.43;1.33;;;20.50;68.90;;;;;;5048266;28;20179;-48
2023/06/30 08:14:07;;;;;;;5.00;1.10;;;20.10;69.60;;;;;;5044514;28;20044;-49
2023/06/30 08:16:33;;;;;;;4.75;1.73;;;20.20;70.80;;;;;;5047801;28;20041;-51
2023/06/30 08:19:01;;;;;;;7.07;1.77;;;20.00;71.50;;;;;;5045352;28;20025;-51
2023/06/30 08:21:28;;;;;;;5.88;1.35;;;20.10;70.90;;;;;;5048959;28;20033;-47
2023/06/30 08:23:55;;;;;;;3.60;1.33;;;20.90;72.10;;;;;;5050602;28;20021;-48
2023/06/30 08:26:22;;;;;;;7.28;1.92;;;21.80;70.00;;;;;;5052497;28;20048;-49
2023/06/30 08:28:50;;;;;;;4.35;1.80;;;22.40;66.00;;;;;;5049369;28;20021;-50
2023/06/30 08:31:20;;;;;;;3.60;1.20;;;22.30;65.60;;;;;;5046275;28;20482;-51
2023/06/30 08:33:48;;;;;;;4.07;1.60;;;21.90;65.50;;;;;;5033402;28;20028;-48
2023/06/30 08:36:14;;;;;;;4.43;1.50;;;21.70;63.90;;;;;;5059647;28;20644;-48
2023/06/30 08:38:41;;;;;;;5.72;1.58;;;21.40;65.80;;;;;;5058879;28;20040;-49
2023/06/30 08:41:11;;;;;;;6.28;1.65;;;21.10;66.50;;;;;;5057436;28;20032;-48
2023/06/30 08:43:40;;;;;;;4.07;1.60;;;20.90;67.60;;;;;;5053738;28;20457;-50
2023/06/30 08:46:08;;;;;;;5.88;1.50;;;20.60;67.60;;;;;;5048060;28;20134;-48
2023/06/30 08:48:36;;;;;;;4.35;1.70;;;20.20;68.30;;;;;;5044621;28;20033;-48
2023/06/30 08:51:03;;;;;;;3.50;1.73;;;19.90;69.50;;;;;;5051769;28;20120;-48
2023/06/30 08:53:33;;;;;;;4.40;1.75;;;19.80;70.70;;;;;;5053882;28;20027;-48
2023/06/30 08:56:00;;;;;;;4.72;1.45;;;19.60;71.20;;;;;;5058259;28;20099;-50
2023/06/30 08:58:29;;;;;;;3.83;1.40;;;19.40;72.20;;;;;;5058267;28;20029;-48
2023/06/30 09:00:56;;;;;;;;;;;19.30;73.20;;;;;;5050460;28;20520;-48
2023/06/30 09:03:23;;;;;;;7.30;2.25;;;19.10;73.50;;;;;;5053716;28;19913;-49
2023/06/30 09:05:56;;;;;;;5.78;1.60;;;18.90;74.20;;;;;;5053406;28;20036;-48
2023/06/30 09:08:27;;;;;;;5.97;2.42;;;18.70;75.80;;;;;;5055898;28;20434;-48
2023/06/30 09:10:55;;;;;;;6.53;2.58;;;18.40;76.00;;;;;;5055736;28;20040;-48
2023/06/30 09:13:26;;;;;;;6.47;2.05;;;18.40;76.40;;;;;;5054041;28;20124;-47
2023/06/30 09:15:57;;;;;;;4.68;1.90;;;18.30;77.20;;;;;;5047261;28;20069;-47
2023/06/30 09:18:24;;;;;;;7.38;2.28;;;18.20;78.60;;;;;;5041225;28;20025;-47
2023/06/30 09:20:52;;;;;;;6.85;2.20;;;18.20;78.60;;;;;;5034716;28;20037;-47
2023/06/30 09:23:19;;;;;;;4.10;1.83;;;17.90;78.40;;;;;;5041380;28;20068;-47
2023/06/30 09:25:46;;;;;;;5.47;1.55;;;17.90;78.80;;;;;;5031074;28;20859;-46
2023/06/30 09:28:16;;;;;;;9.55;2.58;;;17.90;78.70;;;;;;5037978;28;20032;-46
2023/06/30 09:30:47;;;;;;;4.53;1.75;;;17.80;78.70;;;;;;5044114;28;20040;-47
2023/06/30 09:33:15;;;;;;;5.55;1.38;;;17.80;78.70;;;;;;5030239;28;20076;-46
2023/06/30 09:35:47;;;;;;;6.40;1.80;;;17.90;79.10;;;;;;5029853;28;20453;-47
2023/06/30 09:38:18;;;;;;;6.00;1.83;;;18.00;80.00;;;;;;5034936;28;20033;-45
2023/06/30 09:40:47;;;;;;;6.57;1.90;;;18.00;78.70;;;;;;5042169;28;20115;-45
2023/06/30 09:43:25;;;;;;;5.45;1.80;;;18.10;79.10;;;;;;5016818;28;20351;-46
2023/06/30 09:46:00;;;;;;;4.05;1.80;;;18.30;79.30;;;;;;5037702;28;20051;-45
2023/06/30 09:48:35;;;;;;;3.78;1.80;;;18.30;77.00;;;;;;5036607;28;20520;-46
2023/06/30 09:51:03;;;;;;;4.05;1.50;;;18.40;77.40;;;;;;5040190;28;20037;-50
2023/06/30 09:53:41;;;;;;;5.03;1.55;;;18.90;77.60;;;;;;5041835;28;20083;-47
2023/06/30 09:56:20;;;;;;;4.18;1.50;;;19.00;76.10;;;;;;5021171;28;20057;-50
2023/06/30 09:58:47;;;;;;;7.22;1.48;;;19.40;75.80;;;;;;5009387;28;20090;-47
2023/06/30 10:01:23;;;;;;;4.90;1.30;;;19.60;74.20;;;;;;5014476;28;20048;-47
2023/06/30 10:03:51;;;;;;;3.42;1.45;;;19.70;72.50;;;;;;5039727;28;20531;-49
2023/06/30 10:06:22;;;;;;;4.65;1.77;;;19.80;72.90;;;;;;5038503;28;20033;-48
2023/06/30 10:08:52;;;;;;;4.63;2.03;;;19.80;73.40;;;;;;5018014;28;20735;-48
2023/06/30 10:11:25;;;;;;;4.70;1.40;;;20.10;72.00;;;;;;5039889;28;20037;-53
2023/06/30 10:13:56;;;;;;;3.42;1.40;;;20.60;72.00;;;;;;5042043;28;20044;-48
2023/06/30 10:16:23;;;;;;;5.07;1.50;;;21.50;72.20;;;;;;5014234;28;20049;-49
2023/06/30 10:18:53;;;;;;;4.25;1.35;;;22.40;70.00;;;;;;5029808;28;20040;-50
2023/06/30 10:21:21;;;;;;;4.93;1.65;;;22.90;66.10;;;;;;5038036;28;20025;-49
2023/06/30 10:23:49;;;;;;;3.72;1.25;;;23.10;63.00;;;;;;5049580;28;20358;-49
2023/06/30 10:26:19;;;;;;;6.90;1.50;;;22.90;65.10;;;;;;5040401;28;20028;-49
2023/06/30 10:28:49;;;;;;;4.05;1.58;;;23.40;64.90;;;;;;5052308;28;20029;-49
2023/06/30 10:31:16;;;;;;;3.97;1.67;;;23.50;62.70;;;;;;5045863;28;20365;-49
2023/06/30 10:33:43;;;;;;;6.68;1.52;;;23.30;59.30;;;;;;5044443;28;20037;-51
2023/06/30 10:36:11;;;;;;;4.57;1.83;;;23.40;62.40;;;;;;5031933;28;20032;-49
2023/06/30 10:38:38;;;;;;;4.80;1.50;;;23.40;61.90;;;;;;5052149;28;20025;-49
2023/06/30 10:41:19;;;;;;;8.32;1.58;;;23.20;59.20;;;;;;5051934;28;20025;-49
2023/06/30 10:44:04;;;;;;;2.90;1.20;;;23.00;60.00;;;;;;5053082;28;20033;-49
2023/06/30 10:46:49;;;;;;;5.60;1.60;;;22.90;60.90;;;;;;5047681;28;20036;-50
2023/06/30 10:49:35;;;;;;;7.28;2.13;;;22.50;63.20;;;;;;5032533;28;20057;-54
2023/06/30 10:52:27;;;;;;;5.32;1.98;;;21.90;62.80;;;;;;5053561;28;20123;-54
2023/06/30 10:54:56;;;;;;;5.57;1.77;;;21.60;65.60;;;;;;5034427;28;20044;-49
2023/06/30 10:57:28;;;;;;;6.55;1.85;;;21.40;64.70;;;;;;5056567;28;20139;-50
2023/06/30 11:00:24;;;;;;;4.68;1.23;;;21.20;65.50;;;;;;5051751;28;20029;-49
2023/06/30 11:03:03;;;;;;;7.82;2.13;;;21.20;67.40;;;;;;5050808;28;20045;-49
2023/06/30 11:05:32;;;;;;;7.25;1.90;;;21.10;66.30;;;;;;5052211;28;20025;-49
2023/06/30 11:08:21;;;;;;;5.75;2.17;;;20.90;67.80;;;;;;5051260;28;20047;-50
2023/06/30 11:10:47;;;;;;;5.97;2.30;;;20.60;67.90;;;;;;5043514;28;20049;-50
2023/06/30 11:13:16;;;;;;;4.93;1.55;;;20.30;67.70;;;;;;5037548;28;20035;-50
2023/06/30 11:15:47;;;;;;;5.37;1.63;;;20.20;69.30;;;;;;5042346;28;20060;-48
2023/06/30 11:18:20;;;;;;;3.75;1.55;;;20.20;69.60;;;;;;5042797;28;20520;-49
2023/06/30 11:21:04;;;;;;;5.63;2.47;;;20.30;69.70;;;;;;5047455;28;20540;-51
2023/06/30 11:23:39;;;;;;;4.03;1.40;;;20.50;70.10;;;;;;5054187;28;20051;-51
2023/06/30 11:26:18;;;;;;;4.70;2.15;;;20.50;68.40;;;;;;5054903;28;20047;-49
2023/06/30 11:28:48;;;;;;;3.63;1.83;;;20.70;68.80;;;;;;5054343;28;20041;-48
2023/06/30 11:31:15;;;;;;;3.40;1.80;;;20.80;69.00;;;;;;5050618;28;20547;-49
2023/06/30 11:33:45;;;;;;;5.70;2.10;;;20.60;66.80;;;;;;5048309;28;20041;-50
2023/06/30 11:36:29;;;;;;;;;;;20.50;68.50;;;;;;5049885;28;20036;-48
2023/06/30 11:39:00;;;;;;;3.60;1.63;;;20.40;69.50;;;;;;5046472;28;20412;-48
2023/06/30 11:41:33;;;;;;;5.32;1.65;;;20.40;68.50;;;;;;5035865;28;20021;-48
2023/06/30 11:43:59;;;;;;;4.95;1.45;;;20.50;67.60;;;;;;5050965;28;20029;-48
2023/06/30 11:46:27;;;;;;;4.65;1.20;;;20.80;67.20;;;;;;5050801;28;20465;-52
2023/06/30 11:48:56;;;;;;;4.15;1.33;;;21.10;68.00;;;;;;5034356;28;20021;-49
2023/06/30 11:51:22;;;;;;;5.63;1.65;;;21.40;65.90;;;;;;5055677;28;20032;-48
2023/06/30 11:53:49;;;;;;;5.22;1.45;;;21.00;64.60;;;;;;5050260;28;20040;-53
2023/06/30 11:56:21;;;;;;;4.68;1.70;;;20.90;67.30;;;;;;5028421;28;20033;-49
2023/06/30 11:58:52;;;;;;;4.65;1.65;;;20.60;67.00;;;;;;5032070;28;20156;-48
2023/06/30 12:01:20;;;;;;;4.30;1.60;;;20.30;67.90;;;;;;5047763;28;20112;-49
2023/06/30 12:03:57;;;;;;;3.63;1.38;;;20.70;68.30;;;;;;5034030;28;20029;-51
2023/06/30 12:06:28;;;;;;;5.63;1.90;;;21.30;67.80;;;;;;5013939;28;20458;-49
2023/06/30 12:08:54;;;;;;;4.53;1.48;;;21.80;66.10;;;;;;5054842;28;20540;-49
2023/06/30 12:11:23;;;;;;;4.45;1.70;;;22.30;65.90;;;;;;5047510;28;20029;-54
2023/06/30 12:13:52;;;;;;;4.60;1.55;;;22.30;63.80;;;;;;5054821;28;20032;-50
2023/06/30 12:16:19;;;;;;;4.15;1.48;;;21.90;63.30;;;;;;5035019;28;20041;-51
2023/06/30 12:18:46;;;;;;;3.33;1.23;;;21.90;63.70;;;;;;5045732;28;20362;-54
2023/06/30 12:21:15;;;;;;;3.55;1.13;;;21.60;63.60;;;;;;5051605;28;20465;-49
2023/06/30 12:23:43;;;;;;;4.93;1.30;;;21.20;65.40;;;;;;5049669;28;20041;-49
2023/06/30 12:26:13;;;;;;;3.13;1.27;;;21.20;65.60;;;;;;5034571;28;20402;-49
2023/06/30 12:28:42;;;;;;;3.17;1.40;;;21.20;62.40;;;;;;5048376;28;20025;-48
2023/06/30 12:31:09;;;;;;;4.30;1.30;;;21.50;64.90;;;;;;5055667;28;20063;-51
2023/06/30 12:33:36;;;;;;;4.82;1.92;;;21.80;63.00;;;;;;5057850;28;20043;-49
2023/06/30 12:36:06;;;;;;;5.20;1.55;;;21.70;63.00;;;;;;5033489;28;20039;-56
2023/06/30 12:38:32;;;;;;;4.22;1.10;;;21.30;63.90;;;;;;5051616;28;20029;-52
2023/06/30 12:40:59;;;;;;;5.47;1.58;;;20.60;65.20;;;;;;5046330;28;20029;-49
2023/06/30 12:43:27;;;;;;;3.70;1.45;;;20.40;67.50;;;;;;5049780;28;20028;-48
2023/06/30 12:45:53;;;;;;;5.07;1.65;;;20.50;67.70;;;;;;5052080;28;20412;-50
2023/06/30 12:48:20;;;;;;;4.28;1.55;;;20.90;67.20;;;;;;5049862;28;20033;-53
2023/06/30 12:50:47;;;;;;;3.92;1.30;;;21.20;66.30;;;;;;5051597;28;20060;-50
2023/06/30 12:53:14;;;;;;;4.53;1.00;;;21.20;67.10;;;;;;5050514;28;20029;-55